Terminal Aerodrome Forecast
Issued by NWS

Current Version | Previous Version | Text Only | Print | Product List | Glossary On
Versions: 1 2 3 4 5 6 7 8 9 10 11 12 13 14 15
000
FTUS43 KMPX 052329
TAFRNH
TAF
KRNH 052329Z 0600/0624 15012G19KT P6SM OVC100
     FM060500 18013G20KT P6SM VCSH OVC035
     FM060800 22013KT P6SM OVC025 PROB30 0609/0613 4SM -SN BR OVC015
     FM061500 24017G30KT P6SM OVC025 PROB30 0619/0624 4SM -SHSN
      OVC015=

USA.gov is the U.S. government's official web portal to all federal, state and local government web resources and services.